Main page
METAR-TAF:

METAR-TAF

Airports :

Sierra Blanca Regional Airport

Ruidoso, New Mexico, United States

latitude: 33-28N, longitude: 105-32W, elevation: 6809 ft

Current weather observation

The report was made 10 minutes ago, at 16:35 UTC
Wind 3 mph from the East/Northeast
Temperature 73°F
Humidity 47%
Pressure 30.21 in. Hg
Visibility: 10 miles
Clear sky

METAR: KSRR 151635Z AUTO 07003KT 10SM CLR 23/11 A3021 RMK AO2

Time: 10:45 (16:45 UTC)


TAF: missing

Weather observations and forecasts of more than 4000 airports (METAR and TAF reports).

The available stations are represented by yellow and red dots on the map.

Hover mouse over dot to see the name of the station.

Then click to see weather observations and forecasts.

To change the map : click on the green buttons with a black cross to zoom in, on the green button with a dash to zoom out, or on the green arrows for adjacent maps.


METAR-TAF: